WEATHER DATA

YESTERDAY
Time Temp. Dewp. Hum. Bar. 1h Prec. 24h Prec.
00:00 6.5 6.5 100 1016.8 0.0000 0.0000
00:19 6.5 6.5 100 1016.4 0.0000 0.0000
00:30 6.5 6.5 100 1016.5 0.0000 0.0000
00:40 6.6 6.6 100 1016.6 0.0000 0.0000
00:50 6.6 6.6 100 1016.5 0.0000 0.0000
01:00 6.7 6.7 100 1016.4 0.0000 0.0000
01:11 6.7 6.7 100 1016.3 0.0000 0.0000
01:20 6.7 6.7 100 1016.4 0.0000 0.0000
01:30 6.8 6.8 100 1016.3 0.0000 0.0000
01:41 6.8 6.8 100 1016.2 0.0000 0.0000
01:51 6.8 6.8 100 1016.1 0.0000 0.0000
02:01 6.9 6.9 100 1016 0.0000 0.0000
02:11 7 7 100 1015.9 0.0000 0.0000
02:22 7 7 100 1015.8 0.0000 0.0000
02:31 7 7 100 1015.6 0.0000 0.0000
02:41 7.1 7.1 100 1015.5 0.0000 0.0000
02:51 7.1 7.1 100 1015.2 0.0000 0.0000
03:02 7 7 100 1015.1 0.0000 0.0000
03:12 6.9 6.9 100 1015 0.0000 0.0000
03:22 6.8 6.8 100 1014.7 0.0000 0.0000
03:32 6.7 6.7 100 1014.6 0.0000 0.0000
03:42 6.6 6.6 100 1014.5 0.0000 0.0000
03:52 6.6 6.6 100 1014.4 0.0000 0.0000
04:02 6.5 6.5 100 1014.2 0.0000 0.0000
04:13 6.4 6.4 100 1014.1 0.0000 0.0000
04:23 6.4 6.4 100 1014 0.0000 0.0000
04:33 6.3 6.3 100 1013.8 0.0000 0.0000
04:43 6.3 6.3 100 1013.7 0.0000 0.0000
04:53 6.2 6.2 100 1013.5 0.0000 0.0000
05:03 6.1 6.1 100 1013.6 0.0000 0.0000
05:13 6 6 100 1013.4 0.0000 0.0000
05:24 5.9 5.9 100 1013.3 0.0000 0.0000
05:34 5.9 5.9 100 1013.3 0.0000 0.0000
05:44 5.8 5.8 100 1013.2 0.0000 0.0000
05:53 5.7 5.7 100 1013.1 0.0000 0.0000
06:14 5.6 5.6 100 1012.9 0.0000 0.0000
06:24 5.5 5.5 100 1012.7 0.0000 0.0000
06:34 5.5 5.5 100 1012.5 0.0000 0.0000
06:45 5.4 5.4 100 1012.3 0.0000 0.0000
06:54 5.3 5.3 100 1012.2 0.0000 0.0000
07:04 5.2 5.2 100 1012.2 0.0000 0.0000
07:15 5.1 5.1 100 1012.2 0.0000 0.0000
07:35 4.9 4.9 100 1012.5 0.0000 0.0000
07:45 4.8 4.8 100 1012.6 0.0000 0.0000
07:55 4.8 4.8 100 1012.4 0.0000 0.0000
08:05 4.7 4.7 100 1012.4 0.0000 0.0000
08:15 4.7 4.7 100 1012.6 0.0000 0.0000
08:36 4.7 4.7 100 1013 0.0000 0.0000
08:46 4.7 4.7 100 1013 0.0000 0.0000
08:55 4.7 4.7 100 1013 0.0000 0.0000
09:16 4.6 4.6 100 1012.8 0.0000 0.0000
09:26 4.6 4.6 100 1012.7 0.0000 0.0000
09:36 4.6 4.6 100 1012.6 0.0000 0.0000
09:47 4.6 4.6 100 1012.5 0.0000 0.0000
09:56 4.7 4.7 100 1012.5 0.0000 0.0000
10:06 4.7 4.7 100 1012.3 0.0000 0.0000
10:17 4.7 4.7 100 1012 0.0000 0.0000
10:27 4.8 4.8 100 1011.7 0.0000 0.0000
10:37 4.9 4.9 100 1011.7 0.0000 0.0000
10:47 5 5 100 1011.6 0.0000 0.0000
10:57 5.1 5.1 100 1011.6 0.0000 0.0000
11:07 5.3 5.3 100 1011.6 0.0000 0.0000
11:17 5.5 5.5 100 1011.5 0.0000 0.0000
11:28 5.7 5.7 100 1011.5 0.0000 0.0000
11:38 5.9 5.9 100 1011.5 0.0000 0.0000
11:48 6.1 6.1 100 1011.6 0.0000 0.0000
11:57 6.3 6.3 100 1011.6 0.0000 0.0000
12:08 6.4 6.4 100 1011.5 0.0000 0.0000
12:18 6.4 6.3 99 1011.6 0.0000 0.0000
12:28 6.4 6.3 99 1011.7 0.0000 0.0000
12:38 6.4 6.3 99 1011.5 0.0000 0.0000
12:49 6.4 6.3 99 1011.2 0.0000 0.0000
12:58 6.5 6.4 99 1011.3 0.0000 0.0000
13:08 6.6 6.5 99 1011 0.0000 0.0000
13:19 6.6 6.3 98 1011 0.0000 0.0000
13:29 6.7 6.4 98 1010.9 0.0000 0.0000
13:39 6.7 6.4 98 1010.9 0.0000 0.0000
13:49 6.6 6.3 98 1010.9 0.0000 0.0000
14:00 6.6 6.5 99 1010.8 0.0000 0.0000
14:09 6.6 6.5 99 1010.7 0.0000 0.0000
14:19 6.5 6.4 99 1010.6 0.0000 0.0000
14:30 6.4 6.3 99 1010.6 0.0000 0.0000
14:40 6.3 6.2 99 1010.6 0.0000 0.0000
14:50 6.2 6.1 99 1010.5 0.0000 0.0000
15:00 6.1 6 99 1010.5 0.0000 0.0000
15:10 6 5.9 99 1010.5 0.0000 0.0000
15:20 5.9 5.9 100 1010.6 0.0000 0.0000
15:30 5.9 5.9 100 1010.4 0.0000 0.0000
15:40 5.8 5.8 100 1010.3 0.0000 0.0000
15:51 5.8 5.8 100 1010.2 0.0000 0.0000
16:01 5.8 5.8 100 1010.1 0.0000 0.0000
16:11 5.7 5.7 100 1010 0.0000 0.0000
16:21 5.6 5.6 100 1010 0.0000 0.0000
16:31 5.5 5.5 100 1009.9 0.0000 0.0000
16:41 5.5 5.5 100 1009.9 0.0000 0.0000
16:51 5.5 5.5 100 1009.7 0.0000 0.0000
17:02 5.5 5.5 100 1009.6 0.0000 0.0000
17:12 5.5 5.5 100 1009.6 0.0000 0.0000
17:21 5.5 5.5 100 1009.5 0.0000 0.0000
17:32 5.6 5.6 100 1009.5 0.0000 0.0000
17:42 5.6 5.6 100 1009.4 0.0000 0.0000
17:52 5.7 5.7 100 1009.2 0.0000 0.0000
18:02 5.7 5.7 100 1009.2 0.0000 0.0000
18:13 5.8 5.8 100 1009.1 0.0000 0.0000
18:23 5.8 5.8 100 1008.9 0.0000 0.0000
18:32 5.9 5.9 100 1008.8 0.0000 0.0000
18:42 5.9 5.9 100 1008.7 0.0000 0.0000
18:53 5.9 5.9 100 1008.6 0.0000 0.0000
19:03 6 6 100 1008.4 0.0000 0.0000
19:13 6 6 100 1008.3 0.0000 0.0000
19:23 6.1 6.1 100 1008.2 0.0000 0.0000
19:33 6.1 6.1 100 1008.2 0.0000 0.0000
19:43 6.2 6.2 100 1008.1 0.0000 0.0000
19:53 6.3 6.3 100 1008.1 0.0000 0.0000
20:04 6.3 6.3 100 1008 0.0000 0.0000
20:14 6.4 6.4 100 1007.9 0.0000 0.0000
20:24 6.4 6.4 100 1007.9 0.0000 0.0000
20:34 6.4 6.4 100 1007.9 0.0000 0.0000
20:44 6.4 6.4 100 1007.8 0.0000 0.0000
20:54 6.4 6.4 100 1007.6 0.0000 0.0000
21:04 6.5 6.5 100 1007.6 0.0000 0.0000
21:15 6.4 6.4 100 1007.4 0.0000 0.0000
21:25 6.4 6.4 100 1007.3 0.0000 0.0000
21:35 6.4 6.4 100 1007.3 0.0000 0.0000
21:45 6.3 6.3 100 1007.1 0.0000 0.0000
21:55 6.3 6.3 100 1007.2 0.0000 0.0000
22:05 6.2 6.2 100 1007.2 0.0000 0.0000
22:15 6.2 6.2 100 1006.9 0.0000 0.0000
22:26 6.2 6.2 100 1006.9 0.0000 0.0000
22:36 6.1 6.1 100 1006.7 0.0000 0.0000
22:46 6 6 100 1006.8 0.0000 0.0000
22:55 6 6 100 1006.6 0.0000 0.0000
23:06 5.9 5.9 100 1006.5 0.0000 0.0000
23:16 5.9 5.9 100 1006.3 0.0000 0.0000
23:26 5.9 5.9 100 1006.1 0.0000 0.0000
23:36 5.8 5.8 100 1006 0.0000 0.0000
23:47 5.8 5.8 100 1005.9 0.0000 0.0000
23:57 5.7 5.7 100 1005.8 0.0000 0.0000

DAY STATISTIC

2019-02-18
TEMPERATURE
AVERAGE
6.0
HIGH
7.1
02:41
LOW
4.6
09:16
PRESSURE
AVERAGE
1011.3
HIGH
1016.8
00:00
LOW
1005.8
23:57
DEWPOINT
AVERAGE
6.0
HIGH
7.1
02:41
LOW
4.6
09:16
HUMIDITY
AVERAGE
100
HIGH
100
00:00
LOW
98
13:19
PRECIPITATION
RAIN HOUR
0.0
RAIN DAY
0.0
TEMPERATURE (°C)
LOW
4.6
HIGH
7.1
AVERAGE
6.0
PRESSURE (hpa)
LOW
1005.8
HIGH
1016.8
AVERAGE
1011.3
DEVICE